Flight Track Log - Related Links

Times and Time Zones

All times are in EDT time to prevent confusion due to time zone crossing. See the N566UA flight status page for this flight to view local times or setup timezone preferences in your user account.

Time Position Orientation Groundspeed Altitude Reporting Facility
EDT Latitude Longitude Course Direction KTS MPH feet Rate Location/Type
Sun 01:32:06 AM 37.6500 -122.3333 82° East 198 228 2,200  Level Northern Cal TRACON
Sun 01:33:06 AM 37.7167 -122.3000 22° Northeast 253 291 4,700 2,211 Climbing Northern Cal TRACON
Sun 01:33:22 AM 37.7228 -122.3031 338° Northwest 242 278 5,000 2,805 Climbing Oakland Center
Sun 01:34:23 AM 37.7881 -122.2817 15° North 265 305 8,300 2,727 Climbing Oakland Center
Sun 01:35:23 AM 37.8197 -122.1644 71° East 295 339 10,500 2,331 Climbing Oakland Center
Sun 01:36:24 AM 37.8469 -122.0428 74° East 354 407 13,000 2,281 Climbing Oakland Center
Sun 01:37:00 AM 37.9859 -121.7772 82° East  Level FlightAware Approximate
Sun 01:37:24 AM 37.8753 -121.9139 74° East 377 434 15,100  Level Oakland Center
Sun 01:38:24 AM 37.9067 -121.7781 74° East 398 458 17,100 1,983 Climbing Oakland Center
Sun 01:39:25 AM 37.9383 -121.6350 74° East 421 484 19,100 1,934 Climbing Oakland Center
Sun 01:40:25 AM 37.9711 -121.4867 74° East 436 502 21,000 1,884 Climbing Oakland Center
Sun 01:41:26 AM 38.0050 -121.3244 75° East 451 519 22,900 1,736 Climbing Oakland Center
Sun 01:42:26 AM 38.0397 -121.1664 74° East 467 537 24,500 1,488 Climbing Oakland Center
Sun 01:43:27 AM 38.0750 -121.0056 74° East 476 548 25,900 1,388 Climbing Oakland Center
Sun 01:44:27 AM 38.1133 -120.8419 73° East 484 557 27,300 1,350 Climbing Oakland Center
Sun 01:45:27 AM 38.1547 -120.6767 72° East 493 567 28,600 1,289 Climbing Oakland Center
Sun 01:46:28 AM 38.1944 -120.5086 73° East 499 574 29,900 1,240 Climbing Oakland Center
Sun 01:47:28 AM 38.2350 -120.3383 73° East 505 581 31,100 1,339 Climbing Oakland Center
Sun 01:48:29 AM 38.2747 -120.1681 73° East 504 580 32,600 1,339 Climbing Oakland Center
Sun 01:49:29 AM 38.3133 -119.9989 74° East 500 575 33,800 1,050 Climbing Oakland Center
Sun 01:50:29 AM 38.3528 -119.8300 73° East 501 577 34,700 595 Climbing Oakland Center
Sun 01:51:30 AM 38.3911 -119.6589 74° East 504 580 35,000 149 Climbing Oakland Center
Sun 01:52:30 AM 38.4339 -119.4728 74° East 499 574 35,000  Level Oakland Center
Sun 01:53:31 AM 38.4739 -119.3033 73° East 500 575 35,000  Level Oakland Center
Sun 01:54:31 AM 38.5081 -119.1297 76° East 506 582 35,000  Level Oakland Center
Sun 01:55:32 AM 38.5261 -118.9497 83° East 512 589 35,000  Level Oakland Center
Sun 01:56:32 AM 38.5436 -118.7692 83° East 514 592 35,000  Level Oakland Center
Sun 01:57:33 AM 38.5619 -118.5897 83° East 514 592 35,000  Level Oakland Center
Sun 01:58:34 AM 38.5786 -118.4103 83° East 512 589 35,000  Level Oakland Center
Sun 01:59:33 AM 38.5961 -118.2306 83° East 512 589 35,000  Level Oakland Center
Sun 02:00:34 AM 38.6117 -118.0608 83° East 514 592 35,000  Level Oakland Center
Sun 02:01:34 AM 38.6278 -117.8803 83° East 512 589 35,000  Level Oakland Center
Sun 02:02:35 AM 38.6444 -117.6972 83° East 515 593 35,000  Level Oakland Center
Sun 02:03:35 AM 38.6603 -117.5139 84° East 515 593 35,000  Level Oakland Center
Sun 02:04:36 AM 38.6761 -117.3314 84° East 514 592 35,000  Level Oakland Center
Sun 02:05:08 AM 38.6889 -117.2222 81° East 514 592 35,000  Level Salt Lake Center
Sun 02:06:08 AM 38.7164 -117.0433 79° East 510 587 35,000  Level Salt Lake Center
Sun 02:06:36 AM 38.7286 -116.9719 78° East 509 586 35,000  Level Oakland Center
Sun 02:07:08 AM 38.7433 -116.8644 80° East 509 586 35,000  Level Salt Lake Center
Sun 02:08:09 AM 38.7697 -116.6861 79° East 508 585 35,000  Level Salt Lake Center
Sun 02:08:37 AM 38.7806 -116.6144 79° East 509 586 35,000  Level Oakland Center
Sun 02:09:38 AM 38.8064 -116.4361 79° East 508 585 35,000  Level Oakland Center
Sun 02:10:09 AM 38.8222 -116.3294 79° East 509 586 35,000  Level Salt Lake Center
Sun 02:11:10 AM 38.8458 -116.1517 80° East 506 582 35,000  Level Salt Lake Center
Sun 02:12:10 AM 38.8711 -115.9725 80° East 510 587 35,000  Level Salt Lake Center
Sun 02:13:10 AM 38.8958 -115.7931 80° East 510 587 35,000  Level Salt Lake Center
Sun 02:14:11 AM 38.9206 -115.6128 80° East 513 590 35,000  Level Salt Lake Center
Sun 02:15:11 AM 38.9458 -115.4303 80° East 517 595 35,000  Level Salt Lake Center
Sun 02:16:12 AM 38.9706 -115.2475 80° East 517 595 35,000  Level Salt Lake Center
Sun 02:17:12 AM 38.9950 -115.0650 80° East 516 594 35,000  Level Salt Lake Center
Sun 02:18:12 AM 39.0194 -114.8817 80° East 520 598 35,000  Level Salt Lake Center
Sun 02:19:13 AM 39.0431 -114.6972 81° East 522 601 35,000 50 Level Salt Lake Center
Sun 02:20:13 AM 39.0672 -114.5111 80° East 525 604 35,100  Climbing Salt Lake Center
Sun 02:21:13 AM 39.0900 -114.3250 81° East 527 606 35,000 -50 Descending Salt Lake Center
Sun 02:22:14 AM 39.1128 -114.1394 81° East 525 604 35,000  Level Salt Lake Center
Sun 02:23:14 AM 39.1358 -113.9522 81° East 528 608 35,000  Level Salt Lake Center
Sun 02:24:14 AM 39.1586 -113.7661 81° East 527 606 35,000  Level Salt Lake Center
Sun 02:25:15 AM 39.1800 -113.5786 82° East 527 606 35,000  Level Salt Lake Center
Sun 02:26:15 AM 39.2033 -113.3889 81° East 533 613 35,000  Level Salt Lake Center
Sun 02:27:16 AM 39.2256 -113.1994 81° East 534 615 35,000  Level Salt Lake Center
Sun 02:28:16 AM 39.2467 -113.0092 82° East 536 617 35,000  Level Salt Lake Center
Sun 02:29:16 AM 39.2686 -112.8183 81° East 538 619 35,000  Level Salt Lake Center
Sun 02:30:17 AM 39.2889 -112.6319 82° East 540 621 35,000  Level Salt Lake Center
Sun 02:31:17 AM 39.3150 -112.4419 80° East 542 624 35,000  Level Salt Lake Center
Sun 02:32:17 AM 39.3497 -112.2572 76° East 535 616 35,000  Level Salt Lake Center
Sun 02:33:18 AM 39.3908 -112.0333 77° East 536 617 35,000  Level Salt Lake Center
Sun 02:34:18 AM 39.4258 -111.8450 76° East 540 621 35,000  Level Salt Lake Center
Sun 02:35:18 AM 39.4597 -111.6556 77° East 543 625 35,000  Level Salt Lake Center
Sun 02:36:19 AM 39.4939 -111.4647 77° East 546 628 35,000  Level Salt Lake Center
Sun 02:37:19 AM 39.5286 -111.2725 77° East 550 633 35,000  Level Salt Lake Center
Sun 02:38:20 AM 39.5589 -111.0989 77° East 550 633 35,000  Level Salt Lake Center
Sun 02:39:20 AM 39.5969 -110.8833 77° East 549 632 35,000  Level Salt Lake Center
Sun 02:40:20 AM 39.6281 -110.6986 78° East 549 632 35,000  Level Salt Lake Center
Sun 02:41:21 AM 39.6600 -110.5114 77° East 555 639 35,000  Level Salt Lake Center
Sun 02:42:21 AM 39.6972 -110.2925 77° East 557 641 35,000  Level Salt Lake Center
Sun 02:43:21 AM 39.7269 -110.1058 78° East 552 635 35,000  Level Salt Lake Center
Sun 02:44:22 AM 39.7578 -109.9222 78° East 545 627 35,000  Level Salt Lake Center
Sun 02:45:22 AM 39.7878 -109.7369 78° East 547 629 35,000  Level Salt Lake Center
Sun 02:46:22 AM 39.8219 -109.5236 78° East 540 621 35,000  Level Salt Lake Center
Sun 02:47:23 AM 39.8517 -109.3414 78° East 537 618 35,000  Level Salt Lake Center
Sun 02:48:23 AM 39.8806 -109.1583 78° East 537 618 35,000  Level Salt Lake Center
Sun 02:49:23 AM 39.9100 -108.9747 78° East 536 617 35,000  Level Salt Lake Center
Sun 02:50:25 AM 39.9425 -108.7583 79° East 535 616 35,000  Level Denver Center
Sun 02:51:26 AM 39.9714 -108.5750 78° East 536 617 35,000  Level Denver Center
Sun 02:52:26 AM 39.9986 -108.3906 79° East 537 618 35,000  Level Denver Center
Sun 02:53:26 AM 40.0300 -108.1764 79° East 537 618 35,000  Level Denver Center
Sun 02:54:26 AM 40.0572 -107.9933 79° East 537 618 35,000  Level Denver Center
Sun 02:55:27 AM 40.0928 -107.8131 75° East 536 617 35,000  Level Denver Center
Sun 02:56:27 AM 40.1333 -107.6356 73° East 534 615 35,000  Level Denver Center
Sun 02:57:27 AM 40.1814 -107.4275 73° East 536 617 35,000  Level Denver Center
Sun 02:58:27 AM 40.2225 -107.2492 73° East 535 616 35,000  Level Denver Center
Sun 02:59:28 AM 40.2622 -107.0706 74° East 535 616 35,000  Level Denver Center
Sun 03:00:28 AM 40.3019 -106.8936 74° East 532 612 35,000  Level Denver Center
Sun 03:01:28 AM 40.3483 -106.6853 74° East 532 612 35,000  Level Denver Center
Sun 03:02:28 AM 40.3889 -106.5069 73° East 533 613 35,000  Level Denver Center
Sun 03:03:29 AM 40.4269 -106.3289 74° East 531 611 35,000  Level Denver Center
Sun 03:04:29 AM 40.4681 -106.1400 74° East 536 617 35,000  Level Denver Center
Sun 03:05:29 AM 40.5092 -105.9503 74° East 535 616 35,000  Level Denver Center
Sun 03:06:29 AM 40.5486 -105.7583 75° East 536 617 35,000  Level Denver Center
Sun 03:07:30 AM 40.5886 -105.5653 75° East 538 619 35,000  Level Denver Center
Sun 03:08:30 AM 40.6292 -105.3725 74° East 536 617 35,000  Level Denver Center
Sun 03:09:30 AM 40.6689 -105.1828 75° East 530 610 35,000  Level Denver Center
Sun 03:10:31 AM 40.7081 -104.9872 75° East 538 619 35,000  Level Denver Center
Sun 03:11:31 AM 40.7472 -104.7964 75° East 535 616 35,000  Level Denver Center
Sun 03:12:31 AM 40.7850 -104.6047 75° East 530 610 35,000 298 Level Denver Center
Sun 03:13:32 AM 40.8231 -104.4167 75° East 524 603 35,600 496 Climbing Denver Center
Sun 03:14:32 AM 40.8606 -104.2292 75° East 522 601 36,000 200 Climbing Denver Center
Sun 03:15:32 AM 40.8975 -104.0375 76° East 530 610 36,000  Level Denver Center
Sun 03:16:32 AM 40.9444 -103.8500 72° East 531 611 36,000  Level Denver Center
Sun 03:17:33 AM 41.0006 -103.6819 66° East 531 611 36,000  Level Denver Center
Sun 03:18:33 AM 41.0550 -103.5086 67° East 533 613 36,000  Level Denver Center
Sun 03:19:33 AM 41.1167 -103.3064 68° East 533 613 36,000  Level Denver Center
Sun 03:20:34 AM 41.1686 -103.1350 68° East 527 606 36,000 496 Level Denver Center
Sun 03:21:34 AM 41.2183 -102.9742 68° East 521 600 37,000 500 Climbing Denver Center
Sun 03:22:34 AM 41.2725 -102.8028 67° East 507 583 37,000  Level Denver Center
Sun 03:23:35 AM 41.3317 -102.6119 68° East 501 577 37,000  Level Denver Center
Sun 03:24:35 AM 41.3814 -102.4519 67° East 507 583 37,000  Level Denver Center
Sun 03:25:35 AM 41.4244 -102.3114 68° East 512 589 37,000  Level Denver Center
Sun 03:26:35 AM 41.4956 -102.0858 67° East 515 593 37,000  Level Denver Center
Sun 03:27:36 AM 41.5383 -101.9478 67° East 510 587 37,000  Level Denver Center
Sun 03:28:36 AM 41.5967 -101.7544 68° East 504 580 37,000  Level Denver Center
Sun 03:29:36 AM 41.6550 -101.5611 68° East 501 577 37,000  Level Denver Center
Sun 03:30:37 AM 41.6958 -101.4222 68° East 501 577 37,000  Level Denver Center
Sun 03:31:37 AM 41.7544 -101.2272 68° East 503 579 37,000  Level Denver Center
Sun 03:32:37 AM 41.8031 -101.0625 68° East 498 573 37,000  Level Denver Center
Sun 03:33:38 AM 41.8592 -100.8703 69° East 494 568 37,000  Level Denver Center
Sun 03:34:38 AM 41.9061 -100.7067 69° East 492 566 37,000  Level Denver Center
Sun 03:35:38 AM 41.9528 -100.5444 69° East 488 562 37,000  Level Denver Center
Sun 03:36:38 AM 42.0069 -100.3575 69° East 483 556 37,000  Level Denver Center
Sun 03:37:39 AM 42.0531 -100.1961 69° East 482 555 37,000  Level Denver Center
Sun 03:38:39 AM 42.0992 -100.0353 69° East 482 555 37,000  Level Denver Center
Sun 03:39:39 AM 42.1444 -99.8733 69° East 484 557 37,000  Level Denver Center
Sun 03:40:39 AM 42.1981 -99.6853 69° East 482 555 37,000  Level Denver Center
Sun 03:41:40 AM 42.2422 -99.5211 70° East 481 554 37,000  Level Denver Center
Sun 03:42:41 AM 42.2894 -99.3506 69° East 487 560 37,000  Level Minneapolis Center
Sun 03:43:41 AM 42.3378 -99.1794 69° East 486 559 37,000  Level Minneapolis Center
Sun 03:44:41 AM 42.3839 -99.0092 70° East 481 554 37,000  Level Minneapolis Center
Sun 03:45:42 AM 42.4308 -98.8372 70° East 484 557 37,000  Level Minneapolis Center
Sun 03:46:42 AM 42.4736 -98.6647 71° East 483 556 37,000  Level Minneapolis Center
Sun 03:47:42 AM 42.4942 -98.4889 81° East 474 545 37,000  Level Minneapolis Center
Sun 03:48:42 AM 42.5142 -98.3128 81° East 472 543 37,000  Level Minneapolis Center
Sun 03:49:43 AM 42.5347 -98.1389 81° East 468 539 37,000  Level Minneapolis Center
Sun 03:50:43 AM 42.5556 -97.9619 81° East 471 542 37,000  Level Minneapolis Center
Sun 03:51:43 AM 42.5753 -97.7936 81° East 473 544 37,000  Level Minneapolis Center
Sun 03:52:43 AM 42.5947 -97.6167 81° East 474 545 37,000  Level Minneapolis Center
Sun 03:53:44 AM 42.6156 -97.4375 81° East 479 551 37,000  Level Minneapolis Center
Sun 03:54:44 AM 42.6350 -97.2600 81° East 477 549 37,000  Level Minneapolis Center
Sun 03:55:44 AM 42.6542 -97.0797 82° East 481 554 37,000  Level Minneapolis Center
Sun 03:56:44 AM 42.6733 -96.8997 82° East 481 554 37,000  Level Minneapolis Center
Sun 03:57:45 AM 42.6931 -96.7156 82° East 486 559 37,000  Level Minneapolis Center
Sun 03:58:45 AM 42.7131 -96.5206 82° East 492 566 37,000  Level Minneapolis Center
Sun 03:59:45 AM 42.7314 -96.3358 82° East 494 568 37,000  Level Minneapolis Center
Sun 04:00:45 AM 42.7492 -96.1564 82° East 487 560 37,000  Level Minneapolis Center
Sun 04:01:46 AM 42.7667 -95.9806 82° East 476 548 37,000  Level Minneapolis Center
Sun 04:02:46 AM 42.7839 -95.8033 82° East 476 548 37,000  Level Minneapolis Center
Sun 04:03:47 AM 42.8014 -95.6247 82° East 478 550 37,000  Level Minneapolis Center
Sun 04:04:47 AM 42.8172 -95.4456 83° East 479 551 37,000  Level Minneapolis Center
Sun 04:05:47 AM 42.8339 -95.2667 83° East 480 552 37,000  Level Minneapolis Center
Sun 04:06:47 AM 42.8497 -95.0850 83° East 483 556 37,000  Level Minneapolis Center
Sun 04:07:48 AM 42.8658 -94.9014 83° East 488 562 37,000  Level Minneapolis Center
Sun 04:08:48 AM 42.8819 -94.7186 83° East 489 563 37,000  Level Minneapolis Center
Sun 04:09:48 AM 42.8967 -94.5442 83° East 492 566 37,000  Level Minneapolis Center
Sun 04:10:48 AM 42.9133 -94.3614 83° East 491 565 37,000  Level Minneapolis Center
Sun 04:11:48 AM 42.9269 -94.1800 84° East 487 560 37,000  Level Minneapolis Center
Sun 04:12:49 AM 42.9403 -93.9969 84° East 488 562 37,000  Level Minneapolis Center
Sun 04:13:49 AM 42.9578 -93.7794 84° East 486 559 37,000  Level Minneapolis Center
Sun 04:14:49 AM 42.9717 -93.5958 84° East 488 562 37,000  Level Minneapolis Center
Sun 04:15:49 AM 42.9858 -93.4117 84° East 491 565 37,000  Level Minneapolis Center
Sun 04:16:49 AM 42.9997 -93.2258 84° East 495 570 37,000  Level Minneapolis Center
Sun 04:17:50 AM 43.0133 -93.0367 84° East 501 577 37,000  Level Minneapolis Center
Sun 04:18:50 AM 43.0264 -92.8464 85° East 506 582 37,000  Level Minneapolis Center
Sun 04:19:50 AM 43.0400 -92.6550 84° East 508 585 37,000  Level Minneapolis Center
Sun 04:20:50 AM 43.0525 -92.4672 85° East 501 577 37,000  Level Minneapolis Center
Sun 04:21:50 AM 43.0650 -92.2769 85° East 504 580 37,000  Level Minneapolis Center
Sun 04:22:50 AM 43.0769 -92.0817 85° East 514 592 37,000  Level Minneapolis Center
Sun 04:23:51 AM 43.0894 -91.8817 85° East 523 602 37,000  Level Minneapolis Center
Sun 04:24:51 AM 43.1022 -91.6861 85° East 520 598 37,000  Level Minneapolis Center
Sun 04:25:51 AM 43.1125 -91.4978 86° East 501 577 37,000  Level Minneapolis Center
Sun 04:26:51 AM 43.1239 -91.3097 85° East 496 571 37,000  Level Minneapolis Center
Sun 04:27:52 AM 43.1339 -91.1211 86° East 497 572 37,000  Level Minneapolis Center
Sun 04:28:52 AM 43.1442 -90.9331 86° East 497 572 37,000  Level Minneapolis Center
Sun 04:29:52 AM 43.1533 -90.7453 86° East 497 572 37,000  Level Minneapolis Center
Sun 04:30:52 AM 43.1628 -90.5575 86° East 497 572 37,000  Level Minneapolis Center
Sun 04:31:31 AM 43.1689 -90.4453 86° East 498 573 37,000  Level Chicago Center
Sun 04:32:31 AM 43.1767 -90.2550 87° East 494 568 37,000  Level Chicago Center
Sun 04:33:32 AM 43.1850 -90.0675 86° East 493 567 37,000  Level Chicago Center
Sun 04:34:32 AM 43.1928 -89.8811 87° East 491 565 37,000  Level Chicago Center
Sun 04:35:32 AM 43.2017 -89.6958 86° East 489 563 37,000  Level Chicago Center
Sun 04:36:32 AM 43.2081 -89.5103 87° East 488 562 37,000  Level Chicago Center
Sun 04:37:32 AM 43.2150 -89.3247 87° East 488 562 37,000  Level Chicago Center
Sun 04:38:33 AM 43.2231 -89.1411 86° East 486 559 37,000  Level Chicago Center
Sun 04:39:33 AM 43.2294 -88.9567 87° East 486 559 37,000  Level Chicago Center
Sun 04:40:33 AM 43.2358 -88.7739 87° East 483 556 37,000  Level Chicago Center
Sun 04:41:33 AM 43.2417 -88.5908 87° East 486 559 37,000  Level Chicago Center
Sun 04:42:33 AM 43.2469 -88.3758 88° East 492 566 37,000  Level Chicago Center
Sun 04:43:33 AM 43.2531 -88.1908 87° East 491 565 37,000  Level Chicago Center
Sun 04:44:33 AM 43.2586 -88.0036 88° East 494 568 37,000  Level Chicago Center
Sun 04:45:34 AM 43.2628 -87.8139 88° East 499 574 37,000  Level Chicago Center
Sun 04:46:34 AM 43.2681 -87.6258 88° East 496 571 37,000  Level Chicago Center
Sun 04:47:34 AM 43.2722 -87.4361 88° East 498 573 37,000  Level Chicago Center
Sun 04:48:34 AM 43.2764 -87.2489 88° East 502 578 37,000  Level Chicago Center
Sun 04:49:34 AM 43.2794 -87.0597 89° East 499 574 37,000  Level Chicago Center
Sun 04:50:34 AM 43.2825 -86.8678 89° East 502 578 37,000  Level Chicago Center
Sun 04:51:35 AM 43.2853 -86.6764 89° East 502 578 37,000  Level Chicago Center
Sun 04:52:35 AM 43.2886 -86.4831 89° East 506 582 37,000  Level Chicago Center
Sun 04:53:35 AM 43.2914 -86.2903 89° East 503 579 37,000  Level Chicago Center
Sun 04:54:35 AM 43.2928 -86.0939 89° East 507 583 37,000  Level Chicago Center
Sun 04:55:35 AM 43.2950 -85.9378 89° East 506 582 37,000  Level Chicago Center
Sun 04:56:35 AM 43.2961 -85.7433 89° East 504 580 37,000  Level Chicago Center
Sun 04:57:35 AM 43.2969 -85.5467 90° East 510 587 37,000  Level Chicago Center
Sun 04:58:36 AM 43.2981 -85.3522 89° East 509 586 37,000  Level Chicago Center
Sun 04:59:11 AM 43.2964 -85.2275 91° East 514 592 37,000  Level Cleveland Center
Sun 05:00:11 AM 43.2978 -85.0308 89° East 514 592 37,000  Level Cleveland Center
Sun 05:01:11 AM 43.2967 -84.8394 90° East 514 592 37,000  Level Cleveland Center
Sun 05:02:11 AM 43.2975 -84.6483 90° East 509 586 37,000  Level Cleveland Center
Sun 05:03:11 AM 43.2956 -84.4542 91° East 509 586 37,000  Level Cleveland Center
Sun 05:04:11 AM 43.2956 -84.2631 90° East 509 586 37,000  Level Cleveland Center
Sun 05:05:11 AM 43.2933 -84.0717 91° East 503 579 37,000  Level Cleveland Center
Sun 05:06:11 AM 43.2889 -83.8633 92° East 492 566 37,000  Level Cleveland Center
Sun 05:07:11 AM 43.2881 -83.6719 90° East 498 573 37,000  Level Cleveland Center
Sun 05:08:11 AM 43.2867 -83.4781 90° East 498 573 37,000  Level Cleveland Center
Sun 05:09:11 AM 43.2847 -83.3067 91° East 498 573 37,000  Level Cleveland Center
Sun 05:10:11 AM 43.2806 -83.1128 92° East 498 573 37,000  Level Cleveland Center
Sun 05:11:11 AM 43.2783 -82.9214 91° East 498 573 37,000  Level Cleveland Center
Sun 05:12:11 AM 43.2761 -82.7275 91° East 498 573 37,000  Level Cleveland Center
Sun 05:12:38 AM 43.2667 -82.6167 97° East 500 575 37,000  Level Toronto Center
Sun 05:13:38 AM 43.2667 -82.4333 90° East 500 575 37,000  Level Toronto Center
Sun 05:14:38 AM 43.2500 -82.2167 96° East 500 575 37,000  Level Toronto Center
Sun 05:15:38 AM 43.2333 -82.0333 97° East 500 575 37,000  Level Toronto Center
Sun 05:16:38 AM 43.2500 -81.8333 83° East 510 587 37,000  Level Toronto Center
Sun 05:17:38 AM 43.2333 -81.6500 97° East 510 587 37,000  Level Toronto Center
Sun 05:18:38 AM 43.2333 -81.4667 90° East 510 587 37,000  Level Toronto Center
Sun 05:19:38 AM 43.2167 -81.2833 97° East 510 587 37,000  Level Toronto Center
Sun 05:20:38 AM 43.2167 -81.0667 90° East 510 587 37,000  Level Toronto Center
Sun 05:21:38 AM 43.2000 -80.8667 96° East 510 587 37,000  Level Toronto Center
Sun 05:22:38 AM 43.2167 -80.6667 83° East 510 587 37,000  Level Toronto Center
Sun 05:23:38 AM 43.2000 -80.4833 97° East 510 587 37,000  Level Toronto Center
Sun 05:24:38 AM 43.2000 -80.3000 90° East 520 598 37,000  Level Toronto Center
Sun 05:25:38 AM 43.1833 -80.0833 96° East 520 598 37,000  Level Toronto Center
Sun 05:26:38 AM 43.1667 -79.9000 97° East 520 598 37,000  Level Toronto Center
Sun 05:27:38 AM 43.1667 -79.6833 90° East 520 598 37,000  Level Toronto Center
Sun 05:28:38 AM 43.1500 -79.5000 97° East 520 598 37,000  Level Toronto Center
Sun 05:29:38 AM 43.1500 -79.2833 90° East 520 598 37,000  Level Toronto Center
Sun 05:30:38 AM 43.1333 -79.0833 96° East 530 610 37,000  Level Toronto Center
Sun 05:31:38 AM 43.1333 -78.9000 90° East 520 598 37,000  Level Toronto Center
Sun 05:32:11 AM 43.1303 -78.8081 93° East 519 597 37,000  Level Cleveland Center
Sun 05:33:11 AM 43.1186 -78.6122 95° East 519 597 37,000  Level Cleveland Center
Sun 05:34:11 AM 43.1069 -78.4164 95° East 519 597 37,000  Level Cleveland Center
Sun 05:35:11 AM 43.0967 -78.2178 94° East 519 597 37,000  Level Cleveland Center
Sun 05:36:11 AM 43.0842 -78.0192 95° East 519 597 37,000  Level Cleveland Center
Sun 05:37:11 AM 43.0714 -77.8236 95° East 514 592 37,000  Level Cleveland Center
Sun 05:39:01 AM 43.0483 -77.4617 95° East 503 579 37,000  Level Boston Center
Sun 05:39:38 AM 43.0167 -77.3000 105° East 520 598 37,000  Level Toronto Center
Sun 05:40:38 AM 43.0167 -77.1000 90° East 520 598 37,000  Level Toronto Center
Sun 05:41:38 AM 43.0000 -76.9167 97° East 520 598 37,000  Level Toronto Center
Sun 05:42:38 AM 43.0000 -76.7167 90° East 520 598 37,000  Level Toronto Center
Sun 05:43:12 AM 42.9914 -76.6531 100° East 524 603 37,000  Level Boston Center
Sun 05:44:12 AM 42.9797 -76.4564 95° East 524 603 37,000  Level Boston Center
Sun 05:45:13 AM 42.9636 -76.2594 96° East 524 603 37,000  Level Boston Center
Sun 05:46:14 AM 42.9472 -76.0597 96° East 524 603 37,000  Level Boston Center
Sun 05:47:12 AM 42.9325 -75.8633 96° East 524 603 37,000  Level Boston Center
Sun 05:48:12 AM 42.9153 -75.6636 97° East 524 603 37,000  Level Boston Center
Sun 05:49:15 AM 42.8964 -75.4417 97° East 530 610 37,000  Level Boston Center
Sun 05:50:14 AM 42.8806 -75.2425 96° East 530 610 37,000  Level Boston Center
Sun 05:51:12 AM 42.8625 -75.0461 97° East 530 610 37,000  Level Boston Center
Sun 05:52:12 AM 42.8439 -74.8442 97° East 525 604 37,000 -50 Level Boston Center
Sun 05:53:13 AM 42.8250 -74.6453 97° East 525 604 36,900  Descending Boston Center
Sun 05:54:12 AM 42.8100 -74.4467 96° East 525 604 37,000  Climbing Boston Center
Sun 05:55:12 AM 42.7903 -74.2453 98° East 525 604 36,900  Descending Boston Center
Sun 05:56:12 AM 42.7706 -74.0408 97° East 525 604 37,000 50 Climbing Boston Center
Sun 05:57:12 AM 42.7503 -73.8397 98° East 537 618 37,000  Level Boston Center
Sun 05:58:13 AM 42.7317 -73.6414 97° East 537 618 37,000 -1,100 Level Boston Center
Sun 05:59:12 AM 42.7128 -73.4403 97° East 537 618 34,800 -2,727 Descending Boston Center
Sun 06:00:14 AM 42.6872 -73.2339 99° East 543 625 31,500 -3,025 Descending Boston Center
Sun 06:01:13 AM 42.6656 -73.0275 98° East 543 625 28,700 -2,290 Descending Boston Center
Sun 06:02:25 AM 42.6417 -72.8069 98° East 548 631 26,500 -1,925 Descending Boston Center
Sun 06:03:27 AM 42.6253 -72.6292 97° East 514 592 24,400 -2,319 Descending Boston Center
Sun 06:04:24 AM 42.5964 -72.4486 102° East 486 559 21,900 -2,571 Descending Boston Center
Sun 06:05:26 AM 42.5733 -72.2736 100° East 476 548 19,300 -2,656 Descending Boston Center
Sun 06:06:26 AM 42.5500 -72.0906 100° East 455 524 16,500 -2,521 Descending Boston Center
Sun 06:07:25 AM 42.5347 -71.9469 98° East 438 504 14,300 -2,300 Descending Boston Center
Sun 06:08:26 AM 42.5214 -71.7725 96° East 429 494 11,900 -1,600 Descending Boston Center
Sun 06:09:25 AM 42.5058 -71.6403 99° East 403 464 11,100 -919 Descending Boston Center
Sun 06:10:17 AM 42.5167 -71.5167 83° East 351 404 10,200 -1,179 Descending KA90
Sun 06:11:17 AM 42.5500 -71.3833 71° East 331 381 8,900 -1,762 Descending KA90
Sun 06:12:23 AM 42.5667 -71.2667 79° East 305 351 6,500 -1,850 Descending KA90
Sun 06:13:17 AM 42.5833 -71.1667 77° East 283 326 5,200 -1,353 Descending KA90
Sun 06:14:05 AM 42.6000 -71.1000 71° East 277 319 4,200 -1,000 Descending KA90
Sun 06:15:05 AM 42.5667 -71.0000 114° Southeast 252 290 3,400 -800 Descending KA90

Login

Don't have an account? Register now (free) for customized features, flight alerts, and more!